sensor_id;sensor_type;location;lat;lon;timestamp;temperature;humidity
72320;SHT30;60269;52.502;16.732;2023-07-13T00:02:54;16.16;73.42
72320;SHT30;60269;52.502;16.732;2023-07-13T00:06:27;16.46;72.27
72320;SHT30;60269;52.502;16.732;2023-07-13T00:10:03;16.70;70.84
72320;SHT30;60269;52.502;16.732;2023-07-13T00:13:35;16.83;70.35
72320;SHT30;60269;52.502;16.732;2023-07-13T00:17:11;16.89;69.78
72320;SHT30;60269;52.502;16.732;2023-07-13T00:20:44;16.96;69.58
72320;SHT30;60269;52.502;16.732;2023-07-13T00:24:18;16.89;70.15
72320;SHT30;60269;52.502;16.732;2023-07-13T00:27:56;16.89;69.56
72320;SHT30;60269;52.502;16.732;2023-07-13T00:31:27;17.08;69.25
72320;SHT30;60269;52.502;16.732;2023-07-13T00:35:02;17.15;69.53
72320;SHT30;60269;52.502;16.732;2023-07-13T00:38:36;17.14;69.77
72320;SHT30;60269;52.502;16.732;2023-07-13T00:42:10;17.07;70.81
72320;SHT30;60269;52.502;16.732;2023-07-13T00:49:17;16.88;71.16
72320;SHT30;60269;52.502;16.732;2023-07-13T00:52:54;16.91;71.01
72320;SHT30;60269;52.502;16.732;2023-07-13T00:56:30;17.00;70.64
72320;SHT30;60269;52.502;16.732;2023-07-13T01:00:05;17.00;71.11
72320;SHT30;60269;52.502;16.732;2023-07-13T01:03:38;17.00;71.42
72320;SHT30;60269;52.502;16.732;2023-07-13T01:07:12;16.98;71.19
72320;SHT30;60269;52.502;16.732;2023-07-13T01:10:52;17.01;70.07
72320;SHT30;60269;52.502;16.732;2023-07-13T01:14:25;16.96;70.42
72320;SHT30;60269;52.502;16.732;2023-07-13T01:17:57;16.98;70.71
72320;SHT30;60269;52.502;16.732;2023-07-13T01:21:32;16.92;70.76
72320;SHT30;60269;52.502;16.732;2023-07-13T01:25:05;16.84;70.03
72320;SHT30;60269;52.502;16.732;2023-07-13T01:28:38;16.91;69.90
72320;SHT30;60269;52.502;16.732;2023-07-13T01:32:13;16.91;70.19
72320;SHT30;60269;52.502;16.732;2023-07-13T01:35:46;17.02;69.99
72320;SHT30;60269;52.502;16.732;2023-07-13T01:39:18;17.07;70.06
72320;SHT30;60269;52.502;16.732;2023-07-13T01:42:51;17.10;70.00
72320;SHT30;60269;52.502;16.732;2023-07-13T01:46:23;17.04;70.75
72320;SHT30;60269;52.502;16.732;2023-07-13T01:49:55;17.00;70.87
72320;SHT30;60269;52.502;16.732;2023-07-13T01:53:27;16.94;71.86
72320;SHT30;60269;52.502;16.732;2023-07-13T01:57:01;16.98;72.29
72320;SHT30;60269;52.502;16.732;2023-07-13T02:00:34;16.94;72.40
72320;SHT30;60269;52.502;16.732;2023-07-13T02:04:06;16.84;73.53
72320;SHT30;60269;52.502;16.732;2023-07-13T02:07:39;16.50;76.06
72320;SHT30;60269;52.502;16.732;2023-07-13T02:11:11;16.32;76.48
72320;SHT30;60269;52.502;16.732;2023-07-13T02:14:43;16.25;77.05
72320;SHT30;60269;52.502;16.732;2023-07-13T02:18:15;16.23;77.46
72320;SHT30;60269;52.502;16.732;2023-07-13T02:21:51;16.29;77.44
72320;SHT30;60269;52.502;16.732;2023-07-13T02:25:23;16.39;77.36
72320;SHT30;60269;52.502;16.732;2023-07-13T02:28:56;16.49;77.63
72320;SHT30;60269;52.502;16.732;2023-07-13T02:32:29;16.39;78.50
72320;SHT30;60269;52.502;16.732;2023-07-13T02:36:01;16.29;79.20
72320;SHT30;60269;52.502;16.732;2023-07-13T02:39:37;16.26;79.56
72320;SHT30;60269;52.502;16.732;2023-07-13T02:43:12;16.23;79.50
72320;SHT30;60269;52.502;16.732;2023-07-13T02:46:44;16.15;79.76
72320;SHT30;60269;52.502;16.732;2023-07-13T02:50:16;16.06;79.93
72320;SHT30;60269;52.502;16.732;2023-07-13T02:53:48;16.04;80.11
72320;SHT30;60269;52.502;16.732;2023-07-13T02:57:20;15.86;80.82
72320;SHT30;60269;52.502;16.732;2023-07-13T03:00:53;15.79;82.07
72320;SHT30;60269;52.502;16.732;2023-07-13T03:04:25;15.98;81.49
72320;SHT30;60269;52.502;16.732;2023-07-13T03:07:57;16.05;81.10
72320;SHT30;60269;52.502;16.732;2023-07-13T03:11:30;15.88;81.63
72320;SHT30;60269;52.502;16.732;2023-07-13T03:15:02;15.67;82.64
72320;SHT30;60269;52.502;16.732;2023-07-13T03:18:35;15.61;83.37
72320;SHT30;60269;52.502;16.732;2023-07-13T03:22:07;15.67;83.85
72320;SHT30;60269;52.502;16.732;2023-07-13T03:25:39;15.95;82.98
72320;SHT30;60269;52.502;16.732;2023-07-13T03:29:13;16.25;82.43
72320;SHT30;60269;52.502;16.732;2023-07-13T03:32:45;16.47;82.24
72320;SHT30;60269;52.502;16.732;2023-07-13T03:36:23;16.63;82.38
72320;SHT30;60269;52.502;16.732;2023-07-13T03:39:56;16.56;84.08
72320;SHT30;60269;52.502;16.732;2023-07-13T03:43:28;16.50;84.99
72320;SHT30;60269;52.502;16.732;2023-07-13T03:47:00;16.53;85.31
72320;SHT30;60269;52.502;16.732;2023-07-13T03:50:33;16.74;84.73
72320;SHT30;60269;52.502;16.732;2023-07-13T03:54:05;16.87;84.25
72320;SHT30;60269;52.502;16.732;2023-07-13T03:57:37;16.91;84.11
72320;SHT30;60269;52.502;16.732;2023-07-13T04:01:12;17.00;83.97
72320;SHT30;60269;52.502;16.732;2023-07-13T04:04:46;17.02;84.13
72320;SHT30;60269;52.502;16.732;2023-07-13T04:08:18;16.91;84.48
72320;SHT30;60269;52.502;16.732;2023-07-13T04:11:50;16.81;84.84
72320;SHT30;60269;52.502;16.732;2023-07-13T04:15:22;16.77;84.93
72320;SHT30;60269;52.502;16.732;2023-07-13T04:18:56;16.70;85.76
72320;SHT30;60269;52.502;16.732;2023-07-13T04:22:32;16.65;86.03
72320;SHT30;60269;52.502;16.732;2023-07-13T04:26:04;16.75;85.95
72320;SHT30;60269;52.502;16.732;2023-07-13T04:29:37;17.11;84.91
72320;SHT30;60269;52.502;16.732;2023-07-13T04:33:09;17.33;84.20
72320;SHT30;60269;52.502;16.732;2023-07-13T04:36:43;17.57;83.21
72320;SHT30;60269;52.502;16.732;2023-07-13T04:40:20;17.83;82.89
72320;SHT30;60269;52.502;16.732;2023-07-13T04:43:52;18.04;82.24
72320;SHT30;60269;52.502;16.732;2023-07-13T04:47:30;18.25;81.88
72320;SHT30;60269;52.502;16.732;2023-07-13T04:51:02;18.51;80.97
72320;SHT30;60269;52.502;16.732;2023-07-13T04:54:35;18.79;80.44
72320;SHT30;60269;52.502;16.732;2023-07-13T04:58:06;18.85;80.30
72320;SHT30;60269;52.502;16.732;2023-07-13T05:01:39;19.00;79.96
72320;SHT30;60269;52.502;16.732;2023-07-13T05:05:13;20.09;76.96
72320;SHT30;60269;52.502;16.732;2023-07-13T05:08:45;20.64;74.46
72320;SHT30;60269;52.502;16.732;2023-07-13T05:12:18;20.36;75.24
72320;SHT30;60269;52.502;16.732;2023-07-13T05:16:16;20.30;75.65
72320;SHT30;60269;52.502;16.732;2023-07-13T05:19:48;20.17;76.21
72320;SHT30;60269;52.502;16.732;2023-07-13T05:23:20;19.94;77.20
72320;SHT30;60269;52.502;16.732;2023-07-13T05:26:53;19.85;77.56
72320;SHT30;60269;52.502;16.732;2023-07-13T05:30:25;19.78;77.96
72320;SHT30;60269;52.502;16.732;2023-07-13T05:33:57;19.73;78.16
72320;SHT30;60269;52.502;16.732;2023-07-13T05:37:29;19.78;78.02
72320;SHT30;60269;52.502;16.732;2023-07-13T05:41:01;19.75;78.26
72320;SHT30;60269;52.502;16.732;2023-07-13T05:44:36;19.65;78.63
72320;SHT30;60269;52.502;16.732;2023-07-13T05:48:08;19.66;78.93
72320;SHT30;60269;52.502;16.732;2023-07-13T05:51:40;19.69;78.95
72320;SHT30;60269;52.502;16.732;2023-07-13T05:55:13;19.89;78.55
72320;SHT30;60269;52.502;16.732;2023-07-13T05:58:45;19.93;78.52
72320;SHT30;60269;52.502;16.732;2023-07-13T06:02:17;20.08;77.84
72320;SHT30;60269;52.502;16.732;2023-07-13T06:05:49;20.24;77.45
72320;SHT30;60269;52.502;16.732;2023-07-13T06:09:22;20.37;77.25
72320;SHT30;60269;52.502;16.732;2023-07-13T06:12:54;20.31;78.00
72320;SHT30;60269;52.502;16.732;2023-07-13T06:16:27;20.34;77.66
72320;SHT30;60269;52.502;16.732;2023-07-13T06:20:00;20.34;77.79
72320;SHT30;60269;52.502;16.732;2023-07-13T06:23:35;20.60;76.89
72320;SHT30;60269;52.502;16.732;2023-07-13T06:27:08;20.65;76.75
72320;SHT30;60269;52.502;16.732;2023-07-13T06:30:40;20.64;75.11
72320;SHT30;60269;52.502;16.732;2023-07-13T06:34:13;20.68;75.07
72320;SHT30;60269;52.502;16.732;2023-07-13T06:37:45;20.89;74.54
72320;SHT30;60269;52.502;16.732;2023-07-13T06:41:19;21.29;73.44
72320;SHT30;60269;52.502;16.732;2023-07-13T06:44:51;22.29;70.30
72320;SHT30;60269;52.502;16.732;2023-07-13T06:48:24;24.21;64.40
72320;SHT30;60269;52.502;16.732;2023-07-13T06:51:56;24.74;60.86
72320;SHT30;60269;52.502;16.732;2023-07-13T06:55:30;25.75;57.66
72320;SHT30;60269;52.502;16.732;2023-07-13T06:59:02;26.61;54.95
72320;SHT30;60269;52.502;16.732;2023-07-13T07:02:37;27.27;53.40
72320;SHT30;60269;52.502;16.732;2023-07-13T07:06:17;27.78;49.35
72320;SHT30;60269;52.502;16.732;2023-07-13T07:09:49;28.36;48.68
72320;SHT30;60269;52.502;16.732;2023-07-13T07:13:21;28.71;47.94
72320;SHT30;60269;52.502;16.732;2023-07-13T07:16:53;28.96;45.73
72320;SHT30;60269;52.502;16.732;2023-07-13T07:20:25;29.42;44.69
72320;SHT30;60269;52.502;16.732;2023-07-13T07:23:58;29.84;41.68
72320;SHT30;60269;52.502;16.732;2023-07-13T07:27:33;29.76;40.53
72320;SHT30;60269;52.502;16.732;2023-07-13T07:31:09;29.61;40.42
72320;SHT30;60269;52.502;16.732;2023-07-13T07:34:44;30.12;41.49
72320;SHT30;60269;52.502;16.732;2023-07-13T07:38:17;30.46;41.40
72320;SHT30;60269;52.502;16.732;2023-07-13T07:41:49;30.18;40.78
72320;SHT30;60269;52.502;16.732;2023-07-13T07:45:26;30.12;40.87
72320;SHT30;60269;52.502;16.732;2023-07-13T07:48:58;30.45;39.62
72320;SHT30;60269;52.502;16.732;2023-07-13T07:52:30;31.03;38.54
72320;SHT30;60269;52.502;16.732;2023-07-13T07:56:02;30.93;38.21
72320;SHT30;60269;52.502;16.732;2023-07-13T07:59:55;30.35;39.32
72320;SHT30;60269;52.502;16.732;2023-07-13T08:03:29;30.15;39.81
72320;SHT30;60269;52.502;16.732;2023-07-13T08:07:21;30.80;39.82
72320;SHT30;60269;52.502;16.732;2023-07-13T08:10:53;30.84;38.77
72320;SHT30;60269;52.502;16.732;2023-07-13T08:14:49;31.15;39.11
72320;SHT30;60269;52.502;16.732;2023-07-13T08:18:25;31.14;38.17
72320;SHT30;60269;52.502;16.732;2023-07-13T08:21:58;31.51;38.17
72320;SHT30;60269;52.502;16.732;2023-07-13T08:25:30;32.23;36.98
72320;SHT30;60269;52.502;16.732;2023-07-13T08:29:02;32.54;35.92
72320;SHT30;60269;52.502;16.732;2023-07-13T08:32:36;33.73;35.35
72320;SHT30;60269;52.502;16.732;2023-07-13T08:36:08;33.76;32.69
72320;SHT30;60269;52.502;16.732;2023-07-13T08:39:40;31.88;36.44
72320;SHT30;60269;52.502;16.732;2023-07-13T08:43:22;31.58;36.55
72320;SHT30;60269;52.502;16.732;2023-07-13T08:46:58;31.93;37.12
72320;SHT30;60269;52.502;16.732;2023-07-13T08:50:35;31.79;36.84
72320;SHT30;60269;52.502;16.732;2023-07-13T08:54:36;30.29;37.35
72320;SHT30;60269;52.502;16.732;2023-07-13T08:58:14;29.37;38.87
72320;SHT30;60269;52.502;16.732;2023-07-13T09:05:41;28.21;42.29
72320;SHT30;60269;52.502;16.732;2023-07-13T09:09:34;29.36;39.94
72320;SHT30;60269;52.502;16.732;2023-07-13T09:16:49;29.36;39.74
72320;SHT30;60269;52.502;16.732;2023-07-13T09:20:52;28.36;40.83
72320;SHT30;60269;52.502;16.732;2023-07-13T09:28:00;27.86;41.54
72320;SHT30;60269;52.502;16.732;2023-07-13T09:31:42;29.26;38.97
72320;SHT30;60269;52.502;16.732;2023-07-13T09:35:25;29.64;38.13
72320;SHT30;60269;52.502;16.732;2023-07-13T09:42:42;30.14;37.86
72320;SHT30;60269;52.502;16.732;2023-07-13T09:46:21;30.87;35.64
72320;SHT30;60269;52.502;16.732;2023-07-13T09:50:10;30.04;36.74
72320;SHT30;60269;52.502;16.732;2023-07-13T09:53:46;29.27;38.55
72320;SHT30;60269;52.502;16.732;2023-07-13T09:57:23;28.71;36.47
72320;SHT30;60269;52.502;16.732;2023-07-13T10:01:08;28.87;38.04
72320;SHT30;60269;52.502;16.732;2023-07-13T10:04:41;27.89;40.55
72320;SHT30;60269;52.502;16.732;2023-07-13T10:08:29;27.24;40.95
72320;SHT30;60269;52.502;16.732;2023-07-13T10:12:02;27.79;37.91
72320;SHT30;60269;52.502;16.732;2023-07-13T10:15:35;27.79;37.38
72320;SHT30;60269;52.502;16.732;2023-07-13T10:19:12;28.34;36.58
72320;SHT30;60269;52.502;16.732;2023-07-13T10:23:02;28.03;36.95
72320;SHT30;60269;52.502;16.732;2023-07-13T10:26:41;28.44;37.52
72320;SHT30;60269;52.502;16.732;2023-07-13T10:30:21;29.30;36.05
72320;SHT30;60269;52.502;16.732;2023-07-13T10:33:59;28.47;36.43
72320;SHT30;60269;52.502;16.732;2023-07-13T10:38:04;28.61;36.30
72320;SHT30;60269;52.502;16.732;2023-07-13T10:41:40;29.47;34.12
72320;SHT30;60269;52.502;16.732;2023-07-13T10:45:21;29.74;33.30
72320;SHT30;60269;52.502;16.732;2023-07-13T10:49:06;29.61;34.18
72320;SHT30;60269;52.502;16.732;2023-07-13T10:52:49;29.00;34.61
72320;SHT30;60269;52.502;16.732;2023-07-13T10:56:28;29.81;34.18
72320;SHT30;60269;52.502;16.732;2023-07-13T11:00:15;29.15;35.12
72320;SHT30;60269;52.502;16.732;2023-07-13T11:03:55;28.69;36.14
72320;SHT30;60269;52.502;16.732;2023-07-13T11:07:31;28.83;36.36
72320;SHT30;60269;52.502;16.732;2023-07-13T11:18:34;29.98;35.27
72320;SHT30;60269;52.502;16.732;2023-07-13T11:22:12;29.10;36.72
72320;SHT30;60269;52.502;16.732;2023-07-13T11:25:47;27.89;39.05
72320;SHT30;60269;52.502;16.732;2023-07-13T11:36:48;29.40;34.59
72320;SHT30;60269;52.502;16.732;2023-07-13T11:40:25;28.21;37.60
72320;SHT30;60269;52.502;16.732;2023-07-13T11:44:21;27.62;39.62
72320;SHT30;60269;52.502;16.732;2023-07-13T11:47:54;27.20;39.70
72320;SHT30;60269;52.502;16.732;2023-07-13T11:51:34;27.01;37.79
72320;SHT30;60269;52.502;16.732;2023-07-13T11:55:15;27.79;35.61
72320;SHT30;60269;52.502;16.732;2023-07-13T11:58:51;28.09;33.43
72320;SHT30;60269;52.502;16.732;2023-07-13T12:02:38;29.61;30.95
72320;SHT30;60269;52.502;16.732;2023-07-13T12:06:27;30.26;30.46
72320;SHT30;60269;52.502;16.732;2023-07-13T12:10:21;30.80;30.58
72320;SHT30;60269;52.502;16.732;2023-07-13T12:13:53;30.94;30.50
72320;SHT30;60269;52.502;16.732;2023-07-13T12:17:26;29.20;33.37
72320;SHT30;60269;52.502;16.732;2023-07-13T12:21:01;27.63;35.95
72320;SHT30;60269;52.502;16.732;2023-07-13T12:24:35;27.70;30.21
72320;SHT30;60269;52.502;16.732;2023-07-13T12:28:37;29.05;30.48
72320;SHT30;60269;52.502;16.732;2023-07-13T12:32:09;29.39;30.42
72320;SHT30;60269;52.502;16.732;2023-07-13T12:35:47;29.08;31.80
72320;SHT30;60269;52.502;16.732;2023-07-13T12:39:38;28.37;32.57
72320;SHT30;60269;52.502;16.732;2023-07-13T12:43:16;30.39;30.71
72320;SHT30;60269;52.502;16.732;2023-07-13T12:46:55;31.08;28.74
72320;SHT30;60269;52.502;16.732;2023-07-13T12:50:37;30.86;26.97
72320;SHT30;60269;52.502;16.732;2023-07-13T12:54:16;30.77;28.71
72320;SHT30;60269;52.502;16.732;2023-07-13T12:57:54;30.47;28.21
72320;SHT30;60269;52.502;16.732;2023-07-13T13:01:29;30.39;29.26
72320;SHT30;60269;52.502;16.732;2023-07-13T13:05:02;29.74;27.11
72320;SHT30;60269;52.502;16.732;2023-07-13T13:08:36;29.97;27.61
72320;SHT30;60269;52.502;16.732;2023-07-13T13:12:09;30.16;28.17
72320;SHT30;60269;52.502;16.732;2023-07-13T13:15:45;30.94;27.52
72320;SHT30;60269;52.502;16.732;2023-07-13T13:19:20;30.76;28.06
72320;SHT30;60269;52.502;16.732;2023-07-13T13:22:54;30.02;29.61
72320;SHT30;60269;52.502;16.732;2023-07-13T13:26:29;30.09;28.53
72320;SHT30;60269;52.502;16.732;2023-07-13T13:30:11;30.56;28.88
72320;SHT30;60269;52.502;16.732;2023-07-13T13:33:45;29.10;30.39
72320;SHT30;60269;52.502;16.732;2023-07-13T13:37:23;29.98;30.00
72320;SHT30;60269;52.502;16.732;2023-07-13T13:40:59;30.46;28.98
72320;SHT30;60269;52.502;16.732;2023-07-13T13:44:31;29.57;29.85
72320;SHT30;60269;52.502;16.732;2023-07-13T13:48:03;29.73;30.65
72320;SHT30;60269;52.502;16.732;2023-07-13T13:51:35;29.50;31.68
72320;SHT30;60269;52.502;16.732;2023-07-13T13:55:18;29.87;31.55
72320;SHT30;60269;52.502;16.732;2023-07-13T13:58:51;30.74;30.52
72320;SHT30;60269;52.502;16.732;2023-07-13T14:02:26;30.79;30.33
72320;SHT30;60269;52.502;16.732;2023-07-13T14:05:59;29.26;31.60
72320;SHT30;60269;52.502;16.732;2023-07-13T14:09:31;28.78;31.93
72320;SHT30;60269;52.502;16.732;2023-07-13T14:13:03;29.25;31.62
72320;SHT30;60269;52.502;16.732;2023-07-13T14:16:39;30.00;30.04
72320;SHT30;60269;52.502;16.732;2023-07-13T14:20:14;30.64;28.73
72320;SHT30;60269;52.502;16.732;2023-07-13T14:23:50;30.47;28.37
72320;SHT30;60269;52.502;16.732;2023-07-13T14:27:22;30.46;28.62
72320;SHT30;60269;52.502;16.732;2023-07-13T14:30:54;30.37;27.96
72320;SHT30;60269;52.502;16.732;2023-07-13T14:34:26;29.74;28.87
72320;SHT30;60269;52.502;16.732;2023-07-13T14:37:59;29.98;28.55
72320;SHT30;60269;52.502;16.732;2023-07-13T14:41:31;30.64;27.54
72320;SHT30;60269;52.502;16.732;2023-07-13T14:45:04;29.95;29.20
72320;SHT30;60269;52.502;16.732;2023-07-13T14:48:36;30.42;27.25
72320;SHT30;60269;52.502;16.732;2023-07-13T14:52:20;31.42;26.87
72320;SHT30;60269;52.502;16.732;2023-07-13T14:55:55;30.01;28.55
72320;SHT30;60269;52.502;16.732;2023-07-13T14:59:28;30.24;28.80
72320;SHT30;60269;52.502;16.732;2023-07-13T15:03:00;30.49;28.17
72320;SHT30;60269;52.502;16.732;2023-07-13T15:06:56;29.80;29.63
72320;SHT30;60269;52.502;16.732;2023-07-13T15:10:31;30.31;29.45
72320;SHT30;60269;52.502;16.732;2023-07-13T15:14:03;30.53;28.82
72320;SHT30;60269;52.502;16.732;2023-07-13T15:17:43;29.82;30.32
72320;SHT30;60269;52.502;16.732;2023-07-13T15:21:23;29.30;31.66
72320;SHT30;60269;52.502;16.732;2023-07-13T15:24:56;30.11;30.49
72320;SHT30;60269;52.502;16.732;2023-07-13T15:28:32;30.90;30.03
72320;SHT30;60269;52.502;16.732;2023-07-13T15:32:05;29.54;31.65
72320;SHT30;60269;52.502;16.732;2023-07-13T15:35:37;29.64;30.56
72320;SHT30;60269;52.502;16.732;2023-07-13T15:39:14;30.80;29.53
72320;SHT30;60269;52.502;16.732;2023-07-13T15:42:48;28.76;32.35
72320;SHT30;60269;52.502;16.732;2023-07-13T15:46:21;29.22;30.87
72320;SHT30;60269;52.502;16.732;2023-07-13T15:49:55;29.20;31.12
72320;SHT30;60269;52.502;16.732;2023-07-13T15:53:30;28.37;32.53
72320;SHT30;60269;52.502;16.732;2023-07-13T15:57:04;28.09;32.72
72320;SHT30;60269;52.502;16.732;2023-07-13T16:00:40;29.34;30.78
72320;SHT30;60269;52.502;16.732;2023-07-13T16:04:14;29.45;30.85
72320;SHT30;60269;52.502;16.732;2023-07-13T16:07:48;29.54;30.73
72320;SHT30;60269;52.502;16.732;2023-07-13T16:11:32;29.64;31.12
72320;SHT30;60269;52.502;16.732;2023-07-13T16:15:14;30.08;29.58
72320;SHT30;60269;52.502;16.732;2023-07-13T16:18:47;29.57;30.61
72320;SHT30;60269;52.502;16.732;2023-07-13T16:22:19;30.05;30.08
72320;SHT30;60269;52.502;16.732;2023-07-13T16:25:53;27.96;33.13
72320;SHT30;60269;52.502;16.732;2023-07-13T16:29:28;26.90;35.18
72320;SHT30;60269;52.502;16.732;2023-07-13T16:33:02;26.70;35.76
72320;SHT30;60269;52.502;16.732;2023-07-13T16:36:36;27.49;34.03
72320;SHT30;60269;52.502;16.732;2023-07-13T16:40:24;29.29;31.72
72320;SHT30;60269;52.502;16.732;2023-07-13T16:43:58;30.26;29.98
72320;SHT30;60269;52.502;16.732;2023-07-13T16:47:30;29.26;31.37
72320;SHT30;60269;52.502;16.732;2023-07-13T16:51:02;28.40;33.58
72320;SHT30;60269;52.502;16.732;2023-07-13T16:54:39;26.79;35.93
72320;SHT30;60269;52.502;16.732;2023-07-13T16:58:11;25.98;37.58
72320;SHT30;60269;52.502;16.732;2023-07-13T17:01:45;26.80;36.74
72320;SHT30;60269;52.502;16.732;2023-07-13T17:05:19;27.58;35.25
72320;SHT30;60269;52.502;16.732;2023-07-13T17:08:53;28.02;34.80
72320;SHT30;60269;52.502;16.732;2023-07-13T17:12:26;27.82;34.95
72320;SHT30;60269;52.502;16.732;2023-07-13T17:15:58;27.08;35.72
72320;SHT30;60269;52.502;16.732;2023-07-13T17:19:31;26.73;37.13
72320;SHT30;60269;52.502;16.732;2023-07-13T17:23:15;26.87;36.99
72320;SHT30;60269;52.502;16.732;2023-07-13T17:26:48;27.20;35.98
72320;SHT30;60269;52.502;16.732;2023-07-13T17:30:22;26.79;35.99
72320;SHT30;60269;52.502;16.732;2023-07-13T17:33:54;27.37;35.47
72320;SHT30;60269;52.502;16.732;2023-07-13T17:37:27;27.07;36.05
72320;SHT30;60269;52.502;16.732;2023-07-13T17:41:00;26.86;36.46
72320;SHT30;60269;52.502;16.732;2023-07-13T17:44:33;26.76;37.03
72320;SHT30;60269;52.502;16.732;2023-07-13T17:48:09;26.39;38.14
72320;SHT30;60269;52.502;16.732;2023-07-13T17:51:42;26.08;38.90
72320;SHT30;60269;52.502;16.732;2023-07-13T17:55:15;26.22;38.69
72320;SHT30;60269;52.502;16.732;2023-07-13T17:58:48;26.25;38.61
72320;SHT30;60269;52.502;16.732;2023-07-13T18:02:21;25.84;39.77
72320;SHT30;60269;52.502;16.732;2023-07-13T18:05:53;25.39;41.01
72320;SHT30;60269;52.502;16.732;2023-07-13T18:09:26;24.85;42.30
72320;SHT30;60269;52.502;16.732;2023-07-13T18:12:59;24.53;43.13
72320;SHT30;60269;52.502;16.732;2023-07-13T18:16:32;24.24;43.46
72320;SHT30;60269;52.502;16.732;2023-07-13T18:20:06;24.03;44.38
72320;SHT30;60269;52.502;16.732;2023-07-13T18:23:45;24.28;43.57
72320;SHT30;60269;52.502;16.732;2023-07-13T18:27:17;24.21;44.25
72320;SHT30;60269;52.502;16.732;2023-07-13T18:30:55;23.44;45.94
72320;SHT30;60269;52.502;16.732;2023-07-13T18:34:28;23.08;47.01
72320;SHT30;60269;52.502;16.732;2023-07-13T18:38:00;22.74;48.17
72320;SHT30;60269;52.502;16.732;2023-07-13T18:41:34;22.55;48.49
72320;SHT30;60269;52.502;16.732;2023-07-13T18:45:11;22.38;49.34
72320;SHT30;60269;52.502;16.732;2023-07-13T18:48:46;22.12;50.07
72320;SHT30;60269;52.502;16.732;2023-07-13T18:52:19;22.00;50.75
72320;SHT30;60269;52.502;16.732;2023-07-13T18:55:51;21.88;51.33
72320;SHT30;60269;52.502;16.732;2023-07-13T18:59:23;21.68;52.06
72320;SHT30;60269;52.502;16.732;2023-07-13T19:02:59;21.49;52.74
72320;SHT30;60269;52.502;16.732;2023-07-13T19:06:31;21.40;52.78
72320;SHT30;60269;52.502;16.732;2023-07-13T19:10:03;21.30;53.00
72320;SHT30;60269;52.502;16.732;2023-07-13T19:13:35;21.15;53.41
72320;SHT30;60269;52.502;16.732;2023-07-13T19:17:10;21.08;53.89
72320;SHT30;60269;52.502;16.732;2023-07-13T19:20:44;20.88;54.38
72320;SHT30;60269;52.502;16.732;2023-07-13T19:24:21;20.75;54.74
72320;SHT30;60269;52.502;16.732;2023-07-13T19:28:05;20.77;54.07
72320;SHT30;60269;52.502;16.732;2023-07-13T19:31:47;20.71;55.06
72320;SHT30;60269;52.502;16.732;2023-07-13T19:35:20;20.75;54.31
72320;SHT30;60269;52.502;16.732;2023-07-13T19:38:53;20.81;54.14
72320;SHT30;60269;52.502;16.732;2023-07-13T19:42:28;20.94;53.49
72320;SHT30;60269;52.502;16.732;2023-07-13T19:46:01;20.99;53.63
72320;SHT30;60269;52.502;16.732;2023-07-13T19:49:33;20.99;53.50
72320;SHT30;60269;52.502;16.732;2023-07-13T19:53:14;20.95;53.80
72320;SHT30;60269;52.502;16.732;2023-07-13T19:56:47;20.75;54.37
72320;SHT30;60269;52.502;16.732;2023-07-13T20:00:24;20.55;55.44
72320;SHT30;60269;52.502;16.732;2023-07-13T20:03:56;20.47;55.99
72320;SHT30;60269;52.502;16.732;2023-07-13T20:07:28;20.26;56.92
72320;SHT30;60269;52.502;16.732;2023-07-13T20:11:00;20.20;57.16
72320;SHT30;60269;52.502;16.732;2023-07-13T20:14:33;20.13;57.30
72320;SHT30;60269;52.502;16.732;2023-07-13T20:18:05;20.03;57.58
72320;SHT30;60269;52.502;16.732;2023-07-13T20:21:37;19.97;58.11
72320;SHT30;60269;52.502;16.732;2023-07-13T20:25:30;19.82;58.66
72320;SHT30;60269;52.502;16.732;2023-07-13T20:29:03;19.72;58.97
72320;SHT30;60269;52.502;16.732;2023-07-13T20:32:39;19.64;59.29
72320;SHT30;60269;52.502;16.732;2023-07-13T20:36:11;19.59;59.33
72320;SHT30;60269;52.502;16.732;2023-07-13T20:39:44;19.57;59.35
72320;SHT30;60269;52.502;16.732;2023-07-13T20:43:17;19.43;59.98
72320;SHT30;60269;52.502;16.732;2023-07-13T20:46:49;19.45;60.22
72320;SHT30;60269;52.502;16.732;2023-07-13T20:50:24;19.45;60.57
72320;SHT30;60269;52.502;16.732;2023-07-13T20:53:56;19.43;60.65
72320;SHT30;60269;52.502;16.732;2023-07-13T20:57:28;19.30;61.18
72320;SHT30;60269;52.502;16.732;2023-07-13T21:01:01;19.25;61.04
72320;SHT30;60269;52.502;16.732;2023-07-13T21:04:35;19.28;60.72
72320;SHT30;60269;52.502;16.732;2023-07-13T21:08:19;19.11;61.27
72320;SHT30;60269;52.502;16.732;2023-07-13T21:11:51;19.00;61.65
72320;SHT30;60269;52.502;16.732;2023-07-13T21:15:26;18.97;61.12
72320;SHT30;60269;52.502;16.732;2023-07-13T21:18:59;18.87;61.32
72320;SHT30;60269;52.502;16.732;2023-07-13T21:22:31;18.89;61.25
72320;SHT30;60269;52.502;16.732;2023-07-13T21:26:05;18.67;62.27
72320;SHT30;60269;52.502;16.732;2023-07-13T21:29:37;18.52;63.61
72320;SHT30;60269;52.502;16.732;2023-07-13T21:33:15;18.46;64.68
72320;SHT30;60269;52.502;16.732;2023-07-13T21:36:48;18.42;65.51
72320;SHT30;60269;52.502;16.732;2023-07-13T21:40:21;18.31;66.48
72320;SHT30;60269;52.502;16.732;2023-07-13T21:43:54;18.12;67.50
72320;SHT30;60269;52.502;16.732;2023-07-13T21:47:26;17.97;68.90
72320;SHT30;60269;52.502;16.732;2023-07-13T21:50:58;17.79;70.04
72320;SHT30;60269;52.502;16.732;2023-07-13T21:54:30;17.62;70.79
72320;SHT30;60269;52.502;16.732;2023-07-13T21:58:05;17.45;71.80
72320;SHT30;60269;52.502;16.732;2023-07-13T22:01:44;17.43;71.97
72320;SHT30;60269;52.502;16.732;2023-07-13T22:05:17;17.31;72.52
72320;SHT30;60269;52.502;16.732;2023-07-13T22:08:50;17.23;73.04
72320;SHT30;60269;52.502;16.732;2023-07-13T22:12:22;17.08;73.45
72320;SHT30;60269;52.502;16.732;2023-07-13T22:15:54;17.02;73.81
72320;SHT30;60269;52.502;16.732;2023-07-13T22:19:29;16.88;74.12
72320;SHT30;60269;52.502;16.732;2023-07-13T22:23:14;16.81;74.53
72320;SHT30;60269;52.502;16.732;2023-07-13T22:26:46;16.63;75.08
72320;SHT30;60269;52.502;16.732;2023-07-13T22:30:18;16.52;75.45
72320;SHT30;60269;52.502;16.732;2023-07-13T22:33:50;16.44;75.56
72320;SHT30;60269;52.502;16.732;2023-07-13T22:37:23;16.27;76.30
72320;SHT30;60269;52.502;16.732;2023-07-13T22:40:57;16.06;77.31
72320;SHT30;60269;52.502;16.732;2023-07-13T22:44:29;15.86;78.11
72320;SHT30;60269;52.502;16.732;2023-07-13T22:48:01;15.64;78.72
72320;SHT30;60269;52.502;16.732;2023-07-13T22:51:33;15.59;79.29